Flight Track Log - Related Links

Times and Time Zones

All times are in EDT time to prevent confusion due to time zone crossing. See the UPS2506 flight status page for this flight to view local times or setup timezone preferences in your user account.


Time Position Orientation Groundspeed Altitude Reporting Facility
EDT Latitude Longitude Course Direction KTS MPH feet Rate Location/Type
Tue 04:14:24 PM 41.5283 -93.6697 238° Southwest 172 198 1,600  Level Minneapolis Center
Tue 04:14:52 PM 41.5108 -93.7072 238° Southwest 168 193 3,500 3,500 Climbing Minneapolis Center
Tue 04:15:00 PM 41.5183 -93.7033 21° North 163 188 3,700 2,300 Climbing Minneapolis Center
Tue 04:20:52 PM 41.5466 -94.3813 21° North 402 463 17,300 2,309 Climbing FlightAware ADS-B
Tue 04:22:14 PM 41.5358 -94.5900 266° West 421 484 20,400 1,510 Climbing FlightAware ADS-B
Tue 04:23:19 PM 41.5334 -94.6375 266° West 426 490 21,000 1,784 Climbing FlightAware ADS-B
Tue 04:24:42 PM 41.5140 -94.9890 266° West 456 525 24,800 2,462 Climbing FlightAware ADS-B
Tue 04:25:16 PM 41.5090 -95.0860 266° West 460 529 25,800 1,662 Climbing FlightAware ADS-B
Tue 04:25:47 PM 41.5040 -95.1720 266° West 464 534 26,600 1,791 Climbing FlightAware ADS-B
Tue 04:26:23 PM 41.4990 -95.2660 266° West 461 531 27,800 1,913 Climbing FlightAware ADS-B
Tue 04:26:56 PM 41.4930 -95.3600 265° West 458 527 28,800 1,890 Climbing FlightAware ADS-B
Tue 04:27:36 PM 41.4860 -95.4750 265° West 455 524 30,100 1,792 Climbing FlightAware ADS-B
Tue 04:28:13 PM 41.4800 -95.5780 266° West 454 522 31,100 1,636 Climbing FlightAware ADS-B
Tue 04:28:42 PM 41.4750 -95.6610 265° West 452 520 31,900 857 Climbing FlightAware ADS-B
Tue 04:29:16 PM 41.4690 -95.7520 265° West 457 526 32,000 80 Climbing FlightAware ADS-B
Tue 04:29:57 PM 41.4620 -95.8640 265° West 456 525 32,000  Level FlightAware ADS-B
Tue 04:30:27 PM 41.4560 -95.9540 265° West 456 525 32,000  Level FlightAware ADS-B
Tue 04:31:01 PM 41.4500 -96.0470 265° West 455 524 32,000  Level FlightAware ADS-B
Tue 04:31:37 PM 41.4440 -96.1470 265° West 455 524 32,000  Level FlightAware ADS-B
Tue 04:32:15 PM 41.4380 -96.2370 265° West 454 522 32,000 247 Level FlightAware ADS-B
Tue 04:32:50 PM 41.4300 -96.3590 265° West 450 518 32,300 740 Climbing FlightAware ADS-B
Tue 04:33:28 PM 41.4230 -96.4620 265° West 448 516 32,900 600 Climbing FlightAware ADS-B
Tue 04:34:00 PM 41.4170 -96.5500 265° West 450 518 33,000 90 Climbing FlightAware ADS-B
Tue 04:34:35 PM 41.4100 -96.6440 264° West 452 520 33,000  Level FlightAware ADS-B
Tue 04:35:09 PM 41.4030 -96.7430 265° West 451 519 33,000  Level FlightAware ADS-B
Tue 04:35:44 PM 41.3970 -96.8370 265° West 450 518 33,000  Level FlightAware ADS-B
Tue 04:36:21 PM 41.3890 -96.9390 264° West 448 516 33,000  Level FlightAware ADS-B
Tue 04:36:52 PM 41.3888 -96.9453 268° West 447 514 33,000  Level FlightAware ADS-B
Tue 04:37:30 PM 41.3750 -97.1290 264° West 449 517 33,000  Level FlightAware ADS-B
Tue 04:38:05 PM 41.3680 -97.2240 264° West 450 518 33,000 333 Level FlightAware ADS-B
Tue 04:38:42 PM 41.3610 -97.3250 265° West 440 506 33,400 750 Climbing FlightAware ADS-B
Tue 04:39:17 PM 41.3540 -97.4160 264° West 435 501 33,900 522 Climbing FlightAware ADS-B
Tue 04:39:51 PM 41.3460 -97.5100 264° West 436 502 34,000 90 Climbing FlightAware ADS-B
Tue 04:40:24 PM 41.3400 -97.5920 264° West 436 502 34,000  Level FlightAware ADS-B
Tue 04:41:00 PM 41.3320 -97.6920 264° West 436 502 34,000  Level FlightAware ADS-B
Tue 04:41:36 PM 41.3250 -97.7870 264° West 437 503 34,000  Level FlightAware ADS-B
Tue 04:42:21 PM 41.3150 -97.8970 263° West 437 503 34,000  Level FlightAware ADS-B
Tue 04:42:57 PM 41.3070 -97.9790 263° West 437 503 34,000  Level FlightAware ADS-B
Tue 04:43:33 PM 41.3000 -98.0600 263° West 437 503 34,000  Level FlightAware ADS-B
Tue 04:44:10 PM 41.2920 -98.1440 263° West 437 503 34,000  Level FlightAware ADS-B
Tue 04:44:46 PM 41.2850 -98.2260 264° West 437 503 34,000  Level FlightAware ADS-B
Tue 04:45:22 PM 41.2770 -98.3080 263° West 437 503 34,000  Level FlightAware ADS-B
Tue 04:45:59 PM 41.2690 -98.3920 263° West 437 503 34,000  Level FlightAware ADS-B
Tue 04:46:35 PM 41.2620 -98.4730 263° West 437 503 34,000  Level FlightAware ADS-B
Tue 04:47:11 PM 41.2540 -98.5550 263° West 437 503 34,000  Level FlightAware ADS-B
Tue 04:47:47 PM 41.2470 -98.6370 264° West 437 503 34,000  Level FlightAware ADS-B
Tue 04:48:21 PM 41.2390 -98.7140 262° West 437 503 34,000  Level FlightAware ADS-B
Tue 04:48:57 PM 41.2320 -98.7950 263° West 437 503 34,000  Level FlightAware ADS-B
Tue 04:49:33 PM 41.2240 -98.8770 263° West 437 503 34,000  Level FlightAware ADS-B
Tue 04:50:09 PM 41.2170 -98.9590 264° West 437 503 34,000  Level FlightAware ADS-B
Tue 04:50:45 PM 41.2090 -99.0400 263° West 437 503 34,000  Level FlightAware ADS-B
Tue 04:51:22 PM 41.2020 -99.1240 264° West 437 503 34,000  Level FlightAware ADS-B
Tue 04:52:06 PM 41.1839 -99.3989 264° West 427 491 34,000  Level Minneapolis Center
Tue 04:53:08 PM 41.1661 -99.5853 263° West 425 489 34,000  Level Minneapolis Center
Tue 04:54:11 PM 41.1514 -99.7411 263° West 427 491 34,000  Level Minneapolis Center
Tue 04:55:13 PM 41.1361 -99.8964 263° West 425 489 34,000  Level Minneapolis Center
Tue 04:56:15 PM 41.1206 -100.0519 262° West 425 489 34,000  Level Minneapolis Center
Tue 04:57:17 PM 41.1050 -100.2050 262° West 418 481 34,000  Level Minneapolis Center
Tue 04:58:19 PM 41.0894 -100.3589 262° West 422 486 34,000  Level Minneapolis Center
Tue 04:59:22 PM 41.0711 -100.5397 262° West 417 480 34,000  Level Minneapolis Center
Tue 05:00:48 PM 41.0506 -100.7442 262° West 420 483 34,000  Level Denver Center
Tue 05:01:50 PM 41.0328 -100.9131 262° West 420 483 34,000  Level Denver Center
Tue 05:02:52 PM 41.0186 -101.0575 263° West 419 482 34,000  Level Denver Center
Tue 05:03:54 PM 41.0022 -101.2269 263° West 419 482 34,000  Level Denver Center
Tue 05:09:59 PM 40.9050 -102.1720 263° West 426 490 34,000  Level FlightAware ADS-B
Tue 05:10:35 PM 40.8950 -102.2660 262° West 424 488 34,000  Level FlightAware ADS-B
Tue 05:11:28 PM 40.8820 -102.3840 262° West 421 484 34,000  Level FlightAware ADS-B
Tue 05:12:03 PM 40.8700 -102.4890 261° West 415 478 34,000  Level FlightAware ADS-B
Tue 05:12:37 PM 40.8610 -102.5710 262° West 416 479 34,000  Level FlightAware ADS-B
Tue 05:13:14 PM 40.8510 -102.6640 262° West 420 483 34,000  Level FlightAware ADS-B
Tue 05:13:51 PM 40.8400 -102.7620 262° West 420 483 34,000  Level FlightAware ADS-B
Tue 05:14:23 PM 40.8310 -102.8410 261° West 422 486 34,000  Level FlightAware ADS-B
Tue 05:14:59 PM 40.8200 -102.9340 261° West 423 487 34,000  Level FlightAware ADS-B
Tue 05:15:33 PM 40.8110 -103.0180 262° West 422 486 34,000  Level FlightAware ADS-B
Tue 05:16:11 PM 40.8000 -103.1120 261° West 420 483 34,000  Level FlightAware ADS-B
Tue 05:16:43 PM 40.7900 -103.1980 261° West 419 482 34,000  Level FlightAware ADS-B
Tue 05:17:19 PM 40.7790 -103.2900 261° West 423 487 34,000  Level FlightAware ADS-B
Tue 05:17:55 PM 40.7680 -103.3810 261° West 420 483 34,000  Level FlightAware ADS-B
Tue 05:18:29 PM 40.7590 -103.4640 262° West 420 483 34,000  Level FlightAware ADS-B
Tue 05:19:01 PM 40.7490 -103.5480 261° West 421 484 34,000  Level FlightAware ADS-B
Tue 05:19:41 PM 40.7360 -103.6500 260° West 423 487 34,000  Level FlightAware ADS-B
Tue 05:20:12 PM 40.7280 -103.7210 262° West 424 488 34,000  Level FlightAware ADS-B
Tue 05:20:47 PM 40.7160 -103.8170 261° West 425 489 34,000  Level FlightAware ADS-B
Tue 05:21:25 PM 40.7050 -103.9100 261° West 430 495 34,000  Level FlightAware ADS-B
Tue 05:21:59 PM 40.6940 -103.9980 261° West 429 494 34,000  Level FlightAware ADS-B
Tue 05:22:31 PM 40.6840 -104.0790 261° West 430 495 34,000  Level FlightAware ADS-B
Tue 05:23:07 PM 40.6720 -104.1720 260° West 434 499 34,000  Level FlightAware ADS-B
Tue 05:23:45 PM 40.6590 -104.2790 261° West 437 503 34,000  Level FlightAware ADS-B
Tue 05:24:17 PM 40.6490 -104.3580 261° West 438 504 34,000  Level FlightAware ADS-B
Tue 05:24:55 PM 40.6360 -104.4600 260° West 437 503 34,000  Level FlightAware ADS-B
Tue 05:25:29 PM 40.6240 -104.5490 260° West 436 502 34,000  Level FlightAware ADS-B
Tue 05:26:03 PM 40.6130 -104.6380 261° West 437 503 34,000  Level FlightAware ADS-B
Tue 05:26:39 PM 40.6010 -104.7310 260° West 435 501 34,000  Level FlightAware ADS-B
Tue 05:27:11 PM 40.5890 -104.8160 259° West 432 497 34,000  Level FlightAware ADS-B
Tue 05:27:48 PM 40.5780 -104.9060 261° West 431 496 34,000  Level FlightAware ADS-B
Tue 05:28:25 PM 40.5640 -105.0060 260° West 434 499 34,000  Level FlightAware ADS-B
Tue 05:28:59 PM 40.5530 -105.0940 261° West 430 495 34,000  Level FlightAware ADS-B
Tue 05:29:35 PM 40.5400 -105.1850 259° West 425 489 34,000  Level FlightAware ADS-B
Tue 05:30:07 PM 40.5290 -105.2680 260° West 425 489 34,000  Level FlightAware ADS-B
Tue 05:30:41 PM 40.5170 -105.3530 260° West 428 493 34,000  Level FlightAware ADS-B
Tue 05:31:19 PM 40.5040 -105.4500 260° West 428 493 34,000  Level FlightAware ADS-B
Tue 05:31:53 PM 40.4920 -105.5380 260° West 435 501 34,000  Level FlightAware ADS-B
Tue 05:32:31 PM 40.4790 -105.6360 260° West 429 494 34,000  Level FlightAware ADS-B
Tue 05:33:03 PM 40.4670 -105.7170 259° West 428 493 34,000  Level FlightAware ADS-B
Tue 05:33:41 PM 40.4540 -105.8150 260° West 434 499 34,000  Level FlightAware ADS-B
Tue 05:34:09 PM 40.4440 -105.8860 260° West 430 495 34,000  Level FlightAware ADS-B
Tue 05:34:49 PM 40.4290 -105.9900 259° West 428 493 34,000  Level FlightAware ADS-B
Tue 05:35:25 PM 40.4160 -106.0810 259° West 430 495 34,000  Level FlightAware ADS-B
Tue 05:35:57 PM 40.4040 -106.1650 259° West 440 506 34,000  Level FlightAware ADS-B
Tue 05:36:33 PM 40.3900 -106.2600 259° West 437 503 34,000  Level FlightAware ADS-B
Tue 05:37:09 PM 40.3770 -106.3540 260° West 428 493 34,000  Level FlightAware ADS-B
Tue 05:37:49 PM 40.3620 -106.4530 259° West 425 489 34,000  Level FlightAware ADS-B
Tue 05:38:27 PM 40.3480 -106.5480 259° West 428 493 34,000  Level FlightAware ADS-B
Tue 05:39:03 PM 40.3340 -106.6430 259° West 432 497 34,000  Level FlightAware ADS-B
Tue 05:39:35 PM 40.3220 -106.7250 259° West 432 497 34,000  Level FlightAware ADS-B
Tue 05:40:10 PM 40.3090 -106.8100 259° West 435 501 34,000  Level FlightAware ADS-B
Tue 05:40:45 PM 40.2950 -106.9030 259° West 430 495 34,000  Level FlightAware ADS-B
Tue 05:41:21 PM 40.2810 -106.9960 259° West 435 501 34,000  Level FlightAware ADS-B
Tue 05:41:55 PM 40.2680 -107.0840 259° West 434 499 34,000  Level FlightAware ADS-B
Tue 05:41:59 PM 40.2669 -107.0902 257° West 433 498 34,000  Level FlightAware ADS-B (KGUC)
Tue 05:42:31 PM 40.2540 -107.1760 259° West 434 499 34,000  Level FlightAware ADS-B
Tue 05:43:03 PM 40.2422 -107.2513 258° West 435 501 34,000  Level FlightAware ADS-B
Tue 05:43:33 PM 40.2292 -107.3356 259° West 437 503 34,000  Level FlightAware ADS-B
Tue 05:44:11 PM 40.2139 -107.4341 259° West 434 499 34,000  Level FlightAware ADS-B
Tue 05:44:42 PM 40.2016 -107.5134 259° West 426 490 34,000  Level FlightAware ADS-B
Tue 05:45:12 PM 40.1896 -107.5891 258° West 427 491 34,000  Level FlightAware ADS-B
Tue 05:45:42 PM 40.1780 -107.6635 258° West 430 495 34,000  Level FlightAware ADS-B
Tue 05:46:22 PM 40.1619 -107.7652 258° West 422 486 34,000  Level FlightAware ADS-B
Tue 05:46:52 PM 40.1503 -107.8376 258° West 424 488 34,000  Level FlightAware ADS-B
Tue 05:47:25 PM 40.1368 -107.9216 258° West 423 487 34,000  Level FlightAware ADS-B
Tue 05:47:55 PM 40.1248 -107.9966 258° West 424 488 34,000  Level FlightAware ADS-B
Tue 05:48:27 PM 40.1123 -108.0747 258° West 424 488 34,000  Level FlightAware ADS-B
Tue 05:48:57 PM 40.0998 -108.1516 258° West 421 484 34,000  Level FlightAware ADS-B
Tue 05:49:28 PM 40.0868 -108.2309 258° West 419 482 34,000  Level FlightAware ADS-B
Tue 05:49:58 PM 40.0750 -108.3033 258° West 419 482 34,000  Level FlightAware ADS-B
Tue 05:50:36 PM 40.0596 -108.3969 258° West 426 490 34,000  Level FlightAware ADS-B
Tue 05:51:08 PM 40.0464 -108.4767 258° West 428 493 34,000  Level FlightAware ADS-B
Tue 05:51:48 PM 40.0301 -108.5755 258° West 429 494 34,000  Level FlightAware ADS-B
Tue 05:52:21 PM 40.0156 -108.6620 258° West 429 494 34,000  Level FlightAware ADS-B
Tue 05:52:55 PM 40.0013 -108.7476 258° West 424 488 34,000  Level FlightAware ADS-B
Tue 05:53:27 PM 39.9881 -108.8258 258° West 420 483 34,000  Level FlightAware ADS-B
Tue 05:53:59 PM 39.9746 -108.9059 258° West 419 482 34,000  Level FlightAware ADS-B
Tue 05:54:33 PM 39.9608 -108.9871 258° West 418 481 34,000  Level FlightAware ADS-B
Tue 05:55:03 PM 39.9478 -109.0634 257° West 417 480 34,000  Level FlightAware ADS-B
Tue 05:55:35 PM 39.9344 -109.1408 257° West 419 482 34,000  Level FlightAware ADS-B
Tue 05:56:05 PM 39.9232 -109.2058 257° West 420 483 34,000  Level FlightAware ADS-B
Tue 05:56:39 PM 39.9074 -109.2976 257° West 420 483 34,000  Level FlightAware ADS-B
Tue 05:57:09 PM 39.8945 -109.3722 257° West 418 481 34,000  Level FlightAware ADS-B
Tue 05:57:40 PM 39.8812 -109.4482 257° West 415 478 34,000  Level FlightAware ADS-B
Tue 05:58:10 PM 39.8686 -109.5201 257° West 414 476 34,000  Level FlightAware ADS-B
Tue 05:58:41 PM 39.8551 -109.5969 257° West 412 474 34,000  Level FlightAware ADS-B
Tue 05:59:14 PM 39.8415 -109.6740 257° West 413 475 34,000  Level FlightAware ADS-B
Tue 05:59:48 PM 39.8267 -109.7578 257° West 414 476 34,000  Level FlightAware ADS-B
Tue 06:00:18 PM 39.8137 -109.8307 257° West 416 479 34,000  Level FlightAware ADS-B
Tue 06:00:58 PM 39.7963 -109.9274 257° West 416 479 34,000  Level FlightAware ADS-B (KGUC)
Tue 06:01:30 PM 39.7822 -110.0058 257° West 418 481 34,000  Level FlightAware ADS-B
Tue 06:02:08 PM 39.7657 -110.0976 257° West 417 480 34,000  Level FlightAware ADS-B (KGUC)
Tue 06:02:45 PM 39.7494 -110.1880 257° West 414 476 34,000  Level FlightAware ADS-B
Tue 06:03:16 PM 39.7362 -110.2604 257° West 413 475 34,000  Level FlightAware ADS-B
Tue 06:03:51 PM 39.7208 -110.3446 257° West 418 481 34,000  Level FlightAware ADS-B
Tue 06:04:26 PM 39.7045 -110.4331 257° West 416 479 34,000  Level FlightAware ADS-B
Tue 06:05:08 PM 39.6861 -110.5326 257° West 409 471 34,000  Level FlightAware ADS-B
Tue 06:05:43 PM 39.6705 -110.6169 257° West 408 470 34,000  Level FlightAware ADS-B
Tue 06:06:13 PM 39.6572 -110.6884 256° West 410 472 34,000  Level FlightAware ADS-B
Tue 06:06:47 PM 39.6428 -110.7650 256° West 411 473 34,000  Level FlightAware ADS-B
Tue 06:07:23 PM 39.6264 -110.8530 256° West 414 476 34,000  Level FlightAware ADS-B
Tue 06:07:56 PM 39.6106 -110.9369 256° West 418 481 34,000  Level FlightAware ADS-B
Tue 06:08:31 PM 39.5949 -111.0201 256° West 415 478 34,000  Level FlightAware ADS-B
Tue 06:09:03 PM 39.5803 -111.0971 256° West 411 473 34,000  Level FlightAware ADS-B
Tue 06:09:45 PM 39.5614 -111.1962 256° West 406 467 34,000  Level FlightAware ADS-B
Tue 06:09:49 PM 39.5593 -111.2070 256° West 406 467 34,000  Level FlightAware ADS-B
Tue 06:10:26 PM 39.5428 -111.2929 256° West 405 466 34,000  Level FlightAware ADS-B
Tue 06:10:28 PM 39.5419 -111.2970 254° West 405 466 34,000  Level FlightAware ADS-B
Tue 06:10:58 PM 39.5282 -111.3690 256° West 405 466 34,000  Level FlightAware ADS-B
Tue 06:11:28 PM 39.5145 -111.4400 256° West 405 466 34,000  Level FlightAware ADS-B
Tue 06:11:43 PM 39.5084 -111.4713 256° West 404 465 34,000  Level FlightAware ADS-B
Tue 06:12:02 PM 39.4993 -111.5180 256° West 404 465 34,000  Level FlightAware ADS-B
Tue 06:12:15 PM 39.4939 -111.5459 256° West 404 465 34,000  Level FlightAware ADS-B
Tue 06:12:32 PM 39.4856 -111.5890 256° West 404 465 34,000  Level FlightAware ADS-B
Tue 06:12:48 PM 39.4784 -111.6249 256° West 406 467 34,000  Level FlightAware ADS-B
Tue 06:13:03 PM 39.4713 -111.6610 256° West 405 466 34,000  Level FlightAware ADS-B
Tue 06:13:30 PM 39.4592 -111.7227 256° West 405 466 34,000  Level FlightAware ADS-B
Tue 06:13:39 PM 39.4548 -111.7450 256° West 405 466 34,000  Level FlightAware ADS-B
Tue 06:14:03 PM 39.4444 -111.7979 256° West 405 466 34,000  Level FlightAware ADS-B
Tue 06:14:09 PM 39.4410 -111.8150 256° West 405 466 34,000  Level FlightAware ADS-B
Tue 06:14:39 PM 39.4272 -111.8850 256° West 402 463 34,000  Level FlightAware ADS-B
Tue 06:14:53 PM 39.4209 -111.9169 256° West 401 461 34,000  Level FlightAware ADS-B
Tue 06:15:09 PM 39.4132 -111.9560 256° West 398 458 34,000  Level FlightAware ADS-B
Tue 06:15:23 PM 39.4071 -111.9866 256° West 398 458 34,000  Level FlightAware ADS-B
Tue 06:15:43 PM 39.3978 -112.0330 255° West 397 457 34,000  Level FlightAware ADS-B
Tue 06:16:13 PM 39.3840 -112.1020 256° West 400 460 34,000  Level FlightAware ADS-B
Tue 06:16:24 PM 39.3792 -112.1263 256° West 400 460 34,000  Level FlightAware ADS-B
Tue 06:16:43 PM 39.3701 -112.1710 255° West 401 461 34,000  Level FlightAware ADS-B
Tue 06:17:15 PM 39.3551 -112.2460 256° West 402 463 34,000  Level FlightAware ADS-B
Tue 06:17:45 PM 39.3412 -112.3146 255° West 400 460 34,000  Level FlightAware ADS-B
Tue 06:17:51 PM 39.3386 -112.3280 256° West 400 460 34,000  Level FlightAware ADS-B
Tue 06:18:26 PM 39.3224 -112.4080 255° West 397 457 34,000  Level FlightAware ADS-B
Tue 06:18:55 PM 39.3094 -112.4716 255° West 399 459 34,000  Level FlightAware ADS-B
Tue 06:18:58 PM 39.3071 -112.4830 256° West 397 457 34,000  Level FlightAware ADS-B
Tue 06:19:25 PM 39.2975 -112.5470 259° West 403 464 34,000  Level FlightAware ADS-B
Tue 06:19:44 PM 39.2926 -112.5910 262° West 404 465 34,000  Level FlightAware ADS-B
Tue 06:19:54 PM 39.2901 -112.6153 262° West 404 465 34,000  Level FlightAware ADS-B
Tue 06:20:14 PM 39.2851 -112.6630 262° West 405 466 34,000  Level FlightAware ADS-B
Tue 06:20:44 PM 39.2775 -112.7339 262° West 404 465 34,000  Level FlightAware ADS-B
Tue 06:20:49 PM 39.2762 -112.7460 262° West 404 465 34,000  Level FlightAware ADS-B
Tue 06:21:24 PM 39.2669 -112.8300 262° West 404 465 34,000  Level FlightAware ADS-B
Tue 06:21:54 PM 39.2589 -112.9010 262° West 401 461 34,000  Level FlightAware ADS-B
Tue 06:21:55 PM 39.2589 -112.9013 281° West 401 461 34,000  Level FlightAware ADS-B
Tue 06:22:28 PM 39.2360 -112.8100 108° East 398 458 34,000  Level FlightAware ADS-B
Tue 06:22:35 PM 39.2482 -112.9967 275° West 402 463 34,000  Level FlightAware ADS-B
Tue 06:23:25 PM 39.2348 -113.1147 262° West 399 459 34,000  Level FlightAware ADS-B
Tue 06:24:15 PM 39.1930 -113.0190 119° Southeast 398 458 34,000  Level FlightAware ADS-B
Tue 06:24:47 PM 39.2132 -113.3029 275° West 397 457 34,000  Level FlightAware ADS-B
Tue 06:25:51 PM 39.1956 -113.4552 262° West 398 458 34,000  Level FlightAware ADS-B
Tue 06:26:22 PM 39.1876 -113.5225 261° West 396 456 34,000  Level FlightAware ADS-B
Tue 06:26:52 PM 39.1790 -113.5890 261° West 396 456 34,000  Level FlightAware ADS-B
Tue 06:27:28 PM 39.1710 -113.6600 262° West 396 456 34,000  Level FlightAware ADS-B
Tue 06:27:42 PM 39.1648 -113.7159 262° West 399 459 34,000  Level FlightAware ADS-B
Tue 06:28:19 PM 39.1545 -113.8013 261° West 400 460 34,000  Level FlightAware ADS-B
Tue 06:29:17 PM 39.1440 -113.8760 260° West 396 456 34,000  Level FlightAware ADS-B
Tue 06:29:53 PM 39.1350 -113.9480 261° West 396 456 34,000  Level FlightAware ADS-B
Tue 06:30:29 PM 39.1270 -114.0190 262° West 396 456 34,000  Level FlightAware ADS-B
Tue 06:31:05 PM 39.1180 -114.0900 261° West 396 456 34,000  Level FlightAware ADS-B
Tue 06:31:42 PM 39.1090 -114.1640 261° West 396 456 34,000  Level FlightAware ADS-B
Tue 06:32:18 PM 39.1000 -114.2350 261° West 396 456 34,000  Level FlightAware ADS-B
Tue 06:32:54 PM 39.0910 -114.3060 261° West 396 456 34,000  Level FlightAware ADS-B
Tue 06:33:28 PM 39.0830 -114.3740 261° West 396 456 34,000  Level FlightAware ADS-B
Tue 06:34:04 PM 39.0740 -114.4450 261° West 396 456 34,000  Level FlightAware ADS-B
Tue 06:34:40 PM 39.0650 -114.5160 261° West 396 456 34,000  Level FlightAware ADS-B
Tue 06:35:17 PM 39.0560 -114.5900 261° West 396 456 34,000  Level FlightAware ADS-B
Tue 06:35:54 PM 39.0470 -114.6630 261° West 396 456 34,000  Level FlightAware ADS-B
Tue 06:37:17 PM 38.9961 -115.0567 261° West 402 463 34,000  Level Salt Lake Center
Tue 06:38:19 PM 38.9778 -115.1978 261° West 401 461 34,000  Level Salt Lake Center
Tue 06:39:21 PM 38.9597 -115.3397 261° West 404 465 34,000  Level Salt Lake Center
Tue 06:40:22 PM 38.9392 -115.4872 260° West 407 468 34,000  Level Salt Lake Center
Tue 06:41:24 PM 38.9189 -115.6292 260° West 405 466 34,000  Level Salt Lake Center
Tue 06:42:26 PM 38.9011 -115.7703 261° West 401 461 34,000  Level Salt Lake Center
Tue 06:43:27 PM 38.8761 -115.9431 260° West 410 472 34,000  Level Salt Lake Center
Tue 06:44:29 PM 38.8561 -116.0864 260° West 409 471 34,000  Level Salt Lake Center
Tue 06:45:37 PM 38.8358 -116.2308 260° West 410 472 34,000  Level Oakland Center
Tue 06:46:39 PM 38.8153 -116.3769 260° West 415 478 34,000  Level Oakland Center
Tue 06:47:40 PM 38.7900 -116.5511 260° West 416 479 34,000  Level Oakland Center
Tue 06:48:36 PM 38.7731 -116.6656 259° West 413 475 34,000  Level Salt Lake Center
Tue 06:49:37 PM 38.7519 -116.8103 259° West 413 475 34,000  Level Salt Lake Center
Tue 06:50:39 PM 38.7264 -116.9822 259° West 413 475 34,000  Level Salt Lake Center
Tue 06:51:41 PM 38.7044 -117.1247 259° West 411 473 34,000  Level Salt Lake Center
Tue 06:52:47 PM 38.6831 -117.2675 259° West 411 473 34,000  Level Oakland Center
Tue 06:58:36 PM 38.5730 -118.1080 259° West 411 473 34,000  Level FlightAware ADS-B
Tue 06:59:12 PM 38.5820 -118.1950 278° West 415 478 34,000  Level FlightAware ADS-B
Tue 06:59:48 PM 38.5910 -118.2800 278° West 416 479 34,000  Level FlightAware ADS-B
Tue 07:00:21 PM 38.6000 -118.3610 278° West 421 484 34,000  Level FlightAware ADS-B
Tue 07:00:56 PM 38.6090 -118.4480 278° West 415 478 34,000 -83 Level FlightAware ADS-B
Tue 07:01:33 PM 38.6180 -118.5370 277° West 420 483 33,900 -615 Descending FlightAware ADS-B
Tue 07:02:14 PM 38.6270 -118.6410 276° West 424 488 33,200 -1,026 Descending FlightAware ADS-B
Tue 07:02:49 PM 38.6360 -118.7230 278° West 422 486 32,600 -1,059 Descending FlightAware ADS-B
Tue 07:03:22 PM 38.6440 -118.8100 277° West 418 481 32,000 -957 Descending FlightAware ADS-B
Tue 07:03:58 PM 38.6530 -118.8960 278° West 411 473 31,500 -900 Descending FlightAware ADS-B
Tue 07:04:22 PM 38.6585 -118.9521 277° West 408 470 31,100 -1,000 Descending FlightAware ADS-B
Tue 07:04:52 PM 38.6655 -119.0257 277° West 407 468 30,600 -868 Descending FlightAware ADS-B
Tue 07:05:38 PM 38.6758 -119.1332 277° West 409 471 30,000 -474 Descending FlightAware ADS-B
Tue 07:06:08 PM 38.6829 -119.2068 277° West 414 476 30,000  Level FlightAware ADS-B
Tue 07:06:38 PM 38.6897 -119.2789 277° West 418 481 30,000  Level FlightAware ADS-B
Tue 07:07:08 PM 38.6967 -119.3531 277° West 420 483 30,000  Level FlightAware ADS-B
Tue 07:07:48 PM 38.7058 -119.4520 277° West 420 483 30,000 -592 Level FlightAware ADS-B
Tue 07:08:19 PM 38.7116 -119.5253 276° West 414 476 29,300 -1,770 Descending FlightAware ADS-B
Tue 07:08:49 PM 38.7196 -119.6016 278° West 409 471 28,200 -2,129 Descending FlightAware ADS-B
Tue 07:09:21 PM 38.7290 -119.6770 279° West 402 463 27,100 -2,049 Descending FlightAware ADS-B
Tue 07:09:30 PM 38.7316 -119.6987 279° West 402 463 26,800 -2,029 Descending FlightAware ADS-B
Tue 07:10:29 PM 38.7460 -119.8330 278° West 391 450 24,800 -1,780 Descending FlightAware ADS-B
Tue 07:11:01 PM 38.7540 -119.9070 278° West 382 440 24,100 -1,286 Descending FlightAware ADS-B
Tue 07:11:11 PM 38.7562 -119.9279 278° West 382 440 23,900 -3,000 Descending FlightAware ADS-B
Tue 07:11:41 PM 38.7630 -119.9960 277° West 387 445 22,100 -3,364 Descending FlightAware ADS-B
Tue 07:12:17 PM 38.7720 -120.0780 278° West 384 442 20,200 -2,200 Descending FlightAware ADS-B
Tue 07:13:11 PM 38.7830 -120.1910 277° West 376 433 18,800 -2,602 Descending FlightAware ADS-B
Tue 07:13:40 PM 38.7770 -120.2560 263° West 358 412 16,600 -1,941 Descending FlightAware ADS-B
Tue 07:14:19 PM 38.7700 -120.3260 263° West 358 412 16,600 -320 Level FlightAware ADS-B
Tue 07:14:55 PM 38.7620 -120.4040 263° West 333 383 16,200 -273 Descending FlightAware ADS-B
Tue 07:15:47 PM 38.7520 -120.4990 262° West 309 356 16,200 -1,341 Level FlightAware ADS-B
Tue 07:16:20 PM 38.7460 -120.5530 262° West 295 339 14,300 -3,176 Descending FlightAware ADS-B
Tue 07:16:55 PM 38.7390 -120.6210 263° West 290 334 12,600 -2,480 Descending FlightAware ADS-B
Tue 07:17:35 PM 38.7330 -120.6860 263° West 274 315 11,200 -2,314 Descending FlightAware ADS-B
Tue 07:18:05 PM 38.7270 -120.7330 261° West 270 311 9,900 -2,545 Descending FlightAware ADS-B
Tue 07:18:41 PM 38.7290 -120.7860 273° West 272 313 8,400 -2,640 Descending FlightAware ADS-B
Tue 07:18:55 PM 38.7320 -120.8130 278° West 271 312 7,700 -1,846 Descending FlightAware ADS-B
Tue 07:19:20 PM 38.7370 -120.8530 279° West 244 281 7,200 -913 Descending FlightAware ADS-B
Tue 07:19:41 PM 38.7400 -120.8800 278° West 226 260 7,000 -840 Descending FlightAware ADS-B
Tue 07:20:10 PM 38.7450 -120.9200 279° West 213 245 6,500 -840 Descending FlightAware ADS-B
Tue 07:20:31 PM 38.7480 -120.9460 278° West 197 227 6,300 -279 Descending FlightAware ADS-B
Tue 07:20:53 PM 38.7410 -120.9690 249° West 193 222 6,300 -200 Level FlightAware ADS-B
Tue 07:21:01 PM 38.7370 -120.9770 237° Southwest 194 223 6,200 -1,000 Descending FlightAware ADS-B
Tue 07:21:17 PM 38.7290 -120.9910 234° Southwest 194 223 5,900 -1,263 Descending FlightAware ADS-B
Tue 07:21:39 PM 38.7180 -121.0120 236° Southwest 197 227 5,400 -1,395 Descending FlightAware ADS-B
Tue 07:22:00 PM 38.7070 -121.0320 235° Southwest 199 229 4,900 -1,174 Descending FlightAware ADS-B
Tue 07:22:25 PM 38.6940 -121.0540 233° Southwest 176 203 4,500 -783 Descending FlightAware ADS-B
Tue 07:22:46 PM 38.6850 -121.0700 234° Southwest 175 201 4,300 -900 Descending FlightAware ADS-B
Tue 07:23:05 PM 38.6740 -121.0880 232° Southwest 173 199 3,900 -1,091 Descending FlightAware ADS-B
Tue 07:23:30 PM 38.6630 -121.1080 235° Southwest 174 200 3,500 -955 Descending FlightAware ADS-B
Tue 07:23:49 PM 38.6530 -121.1260 235° Southwest 176 203 3,200 -973 Descending FlightAware ADS-B
Tue 07:24:07 PM 38.6440 -121.1400 231° Southwest 175 201 2,900 -900 Descending FlightAware ADS-B
Tue 07:24:29 PM 38.6340 -121.1590 236° Southwest 173 199 2,600 -900 Descending FlightAware ADS-B
Tue 07:24:47 PM 38.6250 -121.1740 232° Southwest 168 193 2,300 -973 Descending FlightAware ADS-B
Tue 07:25:06 PM 38.6160 -121.1890 232° Southwest 164 189 2,000 -900 Descending FlightAware ADS-B
Tue 07:25:27 PM 38.6070 -121.2050 234° Southwest 148 170 1,700 -732 Descending FlightAware ADS-B
Tue 07:25:47 PM 38.6000 -121.2180 235° Southwest 131 151 1,500 -600 Descending FlightAware ADS-B
Tue 07:26:07 PM 38.5920 -121.2310 232° Southwest 134 154 1,300 -682 Descending FlightAware ADS-B
Tue 07:26:31 PM 38.5840 -121.2460 236° Southwest 134 154 1,000 -783 Descending FlightAware ADS-B
Tue 07:26:53 PM 38.5760 -121.2590 232° Southwest 134 154 700 -667 Descending FlightAware ADS-B
Tue 07:27:07 PM 38.5700 -121.2690 232° Southwest 134 154 600 -154 Descending FlightAware ADS-B
Tue 07:27:32 PM 38.5630 -121.2830 237° Southwest 134 154 600  Level FlightAware ADS-B

Login

Don't have an account? Register now (free) for customized features, flight alerts, and more!